Weather at Lipowa Airfield

Public forecast

Using degrees Celsius for public forecast. Weather courtesy of forecast.io.

Closest aviation weather report (METAR) to Lipowa Airfield

Closest report is Žilina-Dolný Hričov Airport, 33.7 nm (62.4 km) SW.

2024/05/26 17:30 (retrieved 14 minutes ago)

LZZI 261730Z 25005KT CAVOK 17/15 Q1021

Closest aviation forecast (TAF) to Lipowa Airfield

Closest forecast is Kraków John Paul II International Airport, 35.1 nm (64.9 km) NE.

2024/05/26 15:41 (retrieved 2 hours ago)

TAF EPKK 261430Z 2615/2715 07005KT CAVOK TEMPO 2615/2618 VRB15G30KT 2500 TSRA BKN040CB PROB40 TEMPO 2713/2715 VRB15G30KT 3500 TSRA BKN050CB